Map

Track Data

SID SEASON NUMBER BASIN SUBBASIN NAME ISO_TIME NATURE LAT LON WMO_WIND WMO_PRES WMO_AGENCY TRACK_TYPE DIST2LAND LANDFALL IFLAG USA_AGENCY USA_ATCF_ID USA_LAT USA_LON USA_RECORD USA_STATUS USA_WIND USA_PRES USA_SSHS USA_R34_NE USA_R34_SE USA_R34_SW USA_R34_NW USA_R50_NE USA_R50_SE USA_R50_SW USA_R50_NW USA_R64_NE USA_R64_SE USA_R64_SW USA_R64_NW USA_POCI USA_ROCI USA_RMW USA_EYE TOKYO_LAT TOKYO_LON TOKYO_GRADE TOKYO_WIND TOKYO_PRES TOKYO_R50_DIR TOKYO_R50_LONG TOKYO_R50_SHORT TOKYO_R30_DIR TOKYO_R30_LONG TOKYO_R30_SHORT TOKYO_LAND CMA_LAT CMA_LON CMA_CAT CMA_WIND CMA_PRES HKO_LAT HKO_LON HKO_CAT HKO_WIND HKO_PRES NEWDELHI_LAT NEWDELHI_LON NEWDELHI_GRADE NEWDELHI_WIND NEWDELHI_PRES NEWDELHI_CI NEWDELHI_DP NEWDELHI_POCI REUNION_LAT REUNION_LON REUNION_TYPE REUNION_WIND REUNION_PRES REUNION_TNUM REUNION_CI REUNION_RMW REUNION_R34_NE REUNION_R34_SE REUNION_R34_SW REUNION_R34_NW REUNION_R50_NE REUNION_R50_SE REUNION_R50_SW REUNION_R50_NW REUNION_R64_NE REUNION_R64_SE REUNION_R64_SW REUNION_R64_NW BOM_LAT BOM_LON BOM_TYPE BOM_WIND BOM_PRES BOM_TNUM BOM_CI BOM_RMW BOM_R34_NE BOM_R34_SE BOM_R34_SW BOM_R34_NW BOM_R50_NE BOM_R50_SE BOM_R50_SW BOM_R50_NW BOM_R64_NE BOM_R64_SE BOM_R64_SW BOM_R64_NW BOM_ROCI BOM_POCI BOM_EYE BOM_POS_METHOD BOM_PRES_METHOD NADI_LAT NADI_LON NADI_CAT NADI_WIND NADI_PRES WELLINGTON_LAT WELLINGTON_LON WELLINGTON_WIND WELLINGTON_PRES DS824_LAT DS824_LON DS824_STAGE DS824_WIND DS824_PRES TD9636_LAT TD9636_LON TD9636_STAGE TD9636_WIND TD9636_PRES TD9635_LAT TD9635_LON TD9635_WIND TD9635_PRES TD9635_ROCI NEUMANN_LAT NEUMANN_LON NEUMANN_CLASS NEUMANN_WIND NEUMANN_PRES MLC_LAT MLC_LON MLC_CLASS MLC_WIND MLC_PRES USA_GUST BOM_GUST BOM_GUST_PER REUNION_GUST REUNION_GUST_PER USA_SEAHGT USA_SEARAD_NE USA_SEARAD_SE USA_SEARAD_SW USA_SEARAD_NW STORM_SPEED STORM_DIR
1976220N12259 1976 88 EP MM HYACINTH 1976-08-06 18:00:00 TS 11.5000 -101.000 30 hurdat_epa spur-merge 596 571 O________OO___ hurdat_epa EP081976 11.5000 -101.000 TD 30 -1 11.5000 -101.000 TC 30 11.5000 -101.000 1 30 8 320
1976220N12259 1976 88 EP MM HYACINTH 1976-08-06 21:00:00 TS 11.8029 -101.263 spur-merge 575 557 P________PP___ EP081976 11.8127 -101.272 TD 30 -1 11.8127 -101.272 TC 30 11.7637 -101.225 1 30 7 316
1976220N12259 1976 88 EP MM HYACINTH 1976-08-07 00:00:00 TS 12.0000 -101.500 30 hurdat_epa spur-merge 560 560 O________OO___ hurdat_epa EP081976 12.0000 -101.500 TD 30 -1 12.0000 -101.500 TC 30 12.0000 -101.500 1 30 5 298
1976220N12259 1976 88 EP MM HYACINTH 1976-08-07 03:00:00 TS 12.0372 -101.719 spur-merge 568 568 P________PP___ EP081976 11.9997 -101.683 TD 32 -1 11.9997 -101.683 TC 32 12.1875 -101.863 1 31 6 277
1976220N12259 1976 88 EP MM HYACINTH 1976-08-07 06:00:00 TS 12.0656 -102.062 35 hurdat_epa spur-merge 576 576 O________OP___ hurdat_epa EP081976 12.0000 -102.000 TS 35 0 12.0000 -102.000 TC 35 12.3281 -102.310 1 32 10 285
1976220N12259 1976 88 EP MM HYACINTH 1976-08-07 09:00:00 TS 12.2801 -102.671 spur-merge 585 581 P________PP___ EP081976 12.2427 -102.632 TS 35 0 12.2427 -102.632 TC 35 12.4297 -102.827 1 33 14 288
1976220N12259 1976 88 EP MM HYACINTH 1976-08-07 12:00:00 TS 12.5000 -103.400 35 hurdat_epa spur-merge 591 591 O________OO___ hurdat_epa EP081976 12.5000 -103.400 TS 35 0 12.5000 -103.400 TC 35 12.5000 -103.400 2 35 14 282
1976220N12259 1976 88 EP MM HYACINTH 1976-08-07 15:00:00 TS 12.5768 -104.104 spur-merge 617 617 P________PP___ EP081976 12.5874 -104.115 TS 40 0 12.5874 -104.115 TC 40 12.5343 -104.057 2 40 14 274
1976220N12259 1976 88 EP MM HYACINTH 1976-08-07 18:00:00 TS 12.5888 -104.791 45 hurdat_epa spur-merge 648 648 O________OP___ hurdat_epa EP081976 12.6000 -104.800 TS 45 0 12.6000 -104.800 TC 45 12.5438 -104.753 2 45 13 270
1976220N12259 1976 88 EP MM HYACINTH 1976-08-07 21:00:00 TS 12.5852 -105.453 spur-merge 673 673 P________PP___ EP081976 12.5925 -105.460 TS 50 0 12.5925 -105.460 TC 50 12.5562 -105.423 2 50 12 271
1976220N12259 1976 88 EP MM HYACINTH 1976-08-08 00:00:00 TS 12.6000 -106.000 55 hurdat_epa spur-merge 691 691 O________OO___ hurdat_epa EP081976 12.6000 -106.000 TS 55 0 12.6000 -106.000 TC 55 12.6000 -106.000 2 55 9 276
1976220N12259 1976 88 EP MM HYACINTH 1976-08-08 03:00:00 TS 12.6744 -106.355 spur-merge 699 694 P________PP___ EP081976 12.6698 -106.345 TS 55 0 12.6698 -106.345 TC 55 12.6927 -106.393 2 55 6 289
1976220N12259 1976 88 EP MM HYACINTH 1976-08-08 06:00:00 TS 12.8048 -106.618 55 hurdat_epa spur-merge 699 694 O________OP___ hurdat_epa EP081976 12.8000 -106.600 TS 55 0 12.8000 -106.600 TC 55 12.8238 -106.690 2 55 6 300
1976220N12259 1976 88 EP MM HYACINTH 1976-08-08 09:00:00 TS 12.9805 -106.891 spur-merge 696 688 P________PP___ EP081976 12.9770 -106.818 TS 55 0 12.9775 -106.900 TC 55 12.9930 -106.943 2 55 7 305
1976220N12259 1976 88 EP MM HYACINTH 1976-08-08 12:00:00 TS 13.2000 -107.200 55 hurdat_epa spur-merge 694 691 O________OO___ hurdat_epa EP081976 13.2000 -107.200 TS 55 0 13.2000 -107.200 TC 55 13.2000 -107.200 2 55 9 302
1976220N12259 1976 88 EP MM HYACINTH 1976-08-08 15:00:00 TS 13.4392 -107.631 spur-merge 702 698 P________PP___ EP081976 13.4363 -108.117 TS 57 0 13.4349 -107.485 TC 57 13.4552 -107.527 2 56 10 301
1976220N12259 1976 88 EP MM HYACINTH 1976-08-08 18:00:00 TS 13.7085 -108.054 60 hurdat_epa spur-merge 709 691 O________OP___ hurdat_epa EP081976 13.7000 -108.900 TS 60 0 13.7000 -107.800 TC 60 13.7423 -107.870 2 57 9 310
1976220N12259 1976 88 EP MM HYACINTH 1976-08-08 21:00:00 TS 14.0126 -108.332 spur-merge 691 675 P________PP___ EP081976 14.0071 -108.818 TS 60 0 14.0075 -108.185 TC 60 14.0333 -108.227 2 58 8 318
1976220N12259 1976 88 EP MM HYACINTH 1976-08-09 00:00:00 TS 14.3000 -108.600 60 hurdat_epa spur-merge 681 676 O________OO___ hurdat_epa EP081976 14.3000 -108.600 TS 60 0 14.3000 -108.600 TC 60 14.3000 -108.600 2 60 8 309
1976220N12259 1976 88 EP MM HYACINTH 1976-08-09 03:00:00 TS 14.5261 -108.982 spur-merge 690 688 P________PP___ EP081976 14.5226 -108.917 TS 60 0 14.5224 -109.000 TC 60 14.5404 -109.002 2 62 9 298
1976220N12259 1976 88 EP MM HYACINTH 1976-08-09 06:00:00 TS 14.7095 -109.403 60 hurdat_epa spur-merge 702 701 O________OP___ hurdat_epa EP081976 14.7000 -109.400 TS 60 0 14.7000 -109.400 TC 60 14.7476 -109.415 2 65 9 295
1976220N12259 1976 88 EP MM HYACINTH 1976-08-09 09:00:00 TS 14.8972 -109.804 spur-merge 716 716 P________PP___ EP081976 14.8949 -109.800 TS 65 1 14.8949 -109.800 TC 65 14.9060 -109.820 2 67 8 291
1976220N12259 1976 88 EP MM HYACINTH 1976-08-09 12:00:00 TS 15.0000 -110.200 70 hurdat_epa spur-merge 739 739 O________OO___ hurdat_epa EP081976 15.0000 -110.200 HU 70 1 15.0000 -110.200 TC 70 15.0000 -110.200 4 70 8 273
1976220N12259 1976 88 EP MM HYACINTH 1976-08-09 15:00:00 TS 14.9344 -110.609 spur-merge 777 777 P________PP___ EP081976 14.9226 -110.630 HU 77 1 14.9226 -110.630 TC 77 14.9818 -110.521 4 76 8 256
1976220N12259 1976 88 EP MM HYACINTH 1976-08-09 18:00:00 TS 14.8214 -110.963 85 hurdat_epa spur-merge 816 816 O________OP___ hurdat_epa EP081976 14.8000 -111.000 HU 85 2 14.8000 -111.000 TC 85 14.9070 -110.816 4 82 6 254
1976220N12259 1976 88 EP MM HYACINTH 1976-08-09 21:00:00 TS 14.7756 -111.187 spur-merge 832 832 P________PP___ EP081976 14.7623 -111.208 HU 90 2 14.7623 -111.208 TC 90 14.8287 -111.103 4 88 4 267
1976220N12259 1976 88 EP MM HYACINTH 1976-08-10 00:00:00 TS 14.8000 -111.400 95 hurdat_epa spur-merge 848 848 O________OO___ hurdat_epa EP081976 14.8000 -111.400 HU 95 2 14.8000 -111.400 TC 95 14.8000 -111.400 4 95 5 285
1976220N12259 1976 88 EP MM HYACINTH 1976-08-10 03:00:00 TS 14.9172 -111.725 spur-merge 866 866 P________PP___ EP081976 14.9275 -111.727 HU 97 3 14.9275 -111.727 TC 97 14.8760 -111.715 4 96 7 293
1976220N12259 1976 88 EP MM HYACINTH 1976-08-10 06:00:00 TS 15.0819 -112.090 100 hurdat_epa spur-merge 886 886 O________OP___ hurdat_epa EP081976 15.1000 -112.100 HU 100 3 15.1000 -112.100 TC 100 15.0095 -112.048 4 97 7 294
1976220N12259 1976 88 EP MM HYACINTH 1976-08-10 09:00:00 TS 15.2195 -112.423 spur-merge 897 885 P________PP___ EP081976 15.2273 -112.428 HU 100 3 15.2273 -112.428 TC 100 15.1884 -112.406 4 98 8 295
1976220N12259 1976 88 EP MM HYACINTH 1976-08-10 12:00:00 TS 15.4000 -112.800 100 hurdat_epa spur-merge 888 872 O________OO___ hurdat_epa EP081976 15.4000 -112.800 HU 100 3 15.4000 -112.800 TC 100 15.4000 -112.800 4 100 9 299
1976220N12259 1976 88 EP MM HYACINTH 1976-08-10 15:00:00 TS 15.6774 -113.268 spur-merge 876 863 P________PP___ EP081976 15.6926 -113.285 HU 100 3 15.6926 -113.285 TC 100 15.6166 -113.203 4 100 11 302
1976220N12259 1976 88 EP MM HYACINTH 1976-08-10 18:00:00 TS 15.9723 -113.769 100 hurdat_epa spur-merge 868 863 O________OP___ hurdat_epa EP081976 16.0000 -113.800 HU 100 3 16.0000 -113.800 TC 100 15.8615 -113.646 4 100 10 300
1976220N12259 1976 88 EP MM HYACINTH 1976-08-10 21:00:00 TS 16.1908 -114.204 spur-merge 868 868 P________PP___ EP081976 16.2071 -114.220 HU 100 3 16.2071 -114.220 TC 100 16.1257 -114.141 4 100 10 296
1976220N12259 1976 88 EP MM HYACINTH 1976-08-11 00:00:00 TS 16.4000 -114.700 100 hurdat_epa spur-merge 877 877 O________OO___ hurdat_epa EP081976 16.4000 -114.700 HU 100 3 16.4000 -114.700 TC 100 16.4000 -114.700 4 100 12 292
1976220N12259 1976 88 EP MM HYACINTH 1976-08-11 03:00:00 TS 16.6351 -115.354 spur-merge 903 894 P________PP___ EP081976 16.6351 -115.363 HU 100 3 16.6351 -115.363 TC 100 16.6352 -115.320 4 96 14 291
1976220N12259 1976 88 EP MM HYACINTH 1976-08-11 06:00:00 TS 16.8964 -116.081 100 hurdat_epa spur-merge 925 924 O________OP___ hurdat_epa EP081976 16.9000 -116.100 HU 100 3 16.9000 -116.100 TC 100 16.8822 -116.005 4 92 15 291
1976220N12259 1976 88 EP MM HYACINTH 1976-08-11 09:00:00 TS 17.1683 -116.776 spur-merge 954 954 P________PP___ EP081976 17.1696 -116.786 HU 92 2 17.1696 -116.786 TC 92 17.1630 -116.737 4 88 15 294
1976220N12259 1976 88 EP MM HYACINTH 1976-08-11 12:00:00 TS 17.5000 -117.500 85 hurdat_epa spur-merge 980 977 O________OO___ hurdat_epa EP081976 17.5000 -117.500 HU 85 2 17.5000 -117.500 TC 85 17.5000 -117.500 4 85 16 298
1976220N12259 1976 88 EP MM HYACINTH 1976-08-11 15:00:00 TS 17.9175 -118.278 spur-merge 994 991 P________PP___ EP081976 17.9199 -118.285 HU 85 2 17.9199 -118.285 TC 85 17.9083 -118.248 4 85 18 301
1976220N12259 1976 88 EP MM HYACINTH 1976-08-11 18:00:00 TS 18.3947 -119.085 85 hurdat_epa spur-merge 1009 1008 O________OP___ hurdat_epa EP081976 18.4000 -119.100 HU 85 2 18.4000 -119.100 TC 85 18.3733 -119.027 4 85 18 302
1976220N12259 1976 88 EP MM HYACINTH 1976-08-11 21:00:00 TS 18.8829 -119.877 spur-merge 1032 1032 P________PP___ EP081976 18.8845 -119.886 HU 85 2 18.8845 -119.886 TC 85 18.8767 -119.842 4 85 18 303
1976220N12259 1976 88 EP MM HYACINTH 1976-08-12 00:00:00 TS 19.4000 -120.700 85 hurdat_epa spur-merge 1062 1062 O________OO___ hurdat_epa EP081976 19.4000 -120.700 HU 85 2 19.4000 -120.700 TC 85 19.4000 -120.700 4 85 19 304
1976220N12259 1976 88 EP MM HYACINTH 1976-08-12 03:00:00 TS 19.9538 -121.554 spur-merge 1088 1088 P________PP___ EP081976 19.9494 -121.563 HU 80 1 19.9494 -121.563 TC 80 19.9712 -121.517 4 82 20 304
1976220N12259 1976 88 EP MM HYACINTH 1976-08-12 06:00:00 TS 20.5096 -122.478 75 hurdat_epa spur-merge 1106 1104 O________OP___ hurdat_epa EP081976 20.5000 -122.500 HU 75 1 20.5000 -122.500 TC 75 20.5478 -122.389 4 80 21 302
1976220N12259 1976 88 EP MM HYACINTH 1976-08-12 09:00:00 TS 21.0375 -123.430 spur-merge 1132 1132 P________PP___ EP081976 21.0279 -123.446 HU 75 1 21.0279 -123.446 TC 75 21.0757 -123.367 4 77 22 297
1976220N12259 1976 88 EP MM HYACINTH 1976-08-12 12:00:00 TS 21.5000 -124.580 75 hurdat_epa spur-merge 1191 1191 O________OO___ hurdat_epa EP081976 21.5000 -124.600 HU 75 1 21.5000 -124.600 TC 75 21.5000 -124.500 4 75 26 289
1976220N12259 1976 88 EP MM HYACINTH 1976-08-12 15:00:00 TS 21.9066 -126.108 spur-merge 1292 1292 P________PP___ EP081976 21.9416 -126.153 HU 72 1 21.9416 -126.153 TC 72 21.7668 -125.925 4 70 30 282
1976220N12259 1976 88 EP MM HYACINTH 1976-08-12 18:00:00 TS 22.1434 -127.738 70 hurdat_epa spur-merge 1423 1423 O________OP___ hurdat_epa EP081976 22.2000 -127.800 HU 70 1 22.2000 -127.800 TC 70 21.9170 -127.488 4 65 29 274
1976220N12259 1976 88 EP MM HYACINTH 1976-08-12 21:00:00 TS 22.1114 -129.187 spur-merge 1560 1560 P________PP___ EP081976 22.1436 -129.220 HU 62 0 22.1436 -129.220 TC 62 21.9825 -129.057 4 60 26 267
1976220N12259 1976 88 EP MM HYACINTH 1976-08-13 00:00:00 TS 22.0000 -130.500 55 hurdat_epa spur-merge 1685 1685 O________OO___ hurdat_epa EP081976 22.0000 -130.500 TS 55 0 22.0000 -130.500 TC 55 22.0000 -130.500 2 55 23 268
1976220N12259 1976 88 EP MM HYACINTH 1976-08-13 03:00:00 TS 22.0396 -131.717 spur-merge 1763 1763 P________PP___ EP081976 22.0419 -131.724 TS 50 0 22.0419 -131.724 TC 50 22.0305 -131.689 2 50 21 272
1976220N12259 1976 88 EP MM HYACINTH 1976-08-13 06:00:00 TS 22.0862 -132.787 45 hurdat_epa spur-merge 1822 1822 O________OP___ hurdat_epa EP081976 22.1000 -132.800 TS 45 0 22.1000 -132.800 TC 45 22.0312 -132.733 2 45 18 272
1976220N12259 1976 88 EP MM HYACINTH 1976-08-13 09:00:00 TS 22.0907 -133.712 spur-merge 1881 1881 P________PP___ EP081976 22.1092 -133.725 TS 40 0 22.1092 -133.725 TC 40 22.0166 -133.661 2 40 16 267
1976220N12259 1976 88 EP MM HYACINTH 1976-08-13 12:00:00 TS 22.0000 -134.500 35 hurdat_epa spur-merge 1943 1943 O________OO___ hurdat_epa EP081976 22.0000 -134.500 TS 35 0 22.0000 -134.500 TC 35 22.0000 -134.500 2 35 14 256
1976220N12259 1976 88 EP MM HYACINTH 1976-08-13 15:00:00 TS 21.7609 -135.191 spur-merge 2008 1989 P________PP___ EP081976 21.7015 -135.150 TS 35 0 21.7015 -135.150 TC 35 21.9984 -135.356 2 33 14 246
1976220N12259 1976 88 EP MM HYACINTH 1976-08-13 18:00:00 TS 21.4397 -135.866 35 hurdat_epa spur-merge 1979 1905 O________OP___ hurdat_epa EP081976 21.3000 -135.800 TS 35 0 21.3000 -135.800 TC 35 21.9984 -136.129 2 32 15 245
1976220N12259 1976 88 EP MM HYACINTH 1976-08-13 21:00:00 TS 21.1080 -136.671 spur-merge 1894 1821 P________PP___ EP081976 20.8852 -136.635 TS 32 -1 20.8852 -136.635 TC 32 21.9992 -136.813 2 31 16 249
1976220N12259 1976 88 EP MM HYACINTH 1976-08-14 00:00:00 TS 20.8750 -137.475 30 hurdat_epa spur-merge 1811 1748 O________OO___ hurdat_epa EP081976 20.5000 -137.500 TD 30 -1 20.5000 -137.500 TC 30 22.0000 -137.400 1 30 14 258
1976220N12259 1976 88 EP MM HYACINTH 1976-08-14 03:00:00 TS 20.8119 -138.150 spur-merge 1748 1686 P________PP___ EP081976 20.2177 -138.280 TD 30 -1 20.2177 -138.280 TC 30 22.0003 -137.890 1 30 11 269
1976220N12259 1976 88 EP MM HYACINTH 1976-08-14 06:00:00 TS 20.8573 -138.701 30 hurdat_epa spur-merge 1686 1686 O________OP___ hurdat_epa EP081976 20.0000 -139.000 TD 30 -1 20.0000 -139.000 TC 30 22.0004 -138.303 1 30 13 338
1976220N12259 1976 88 EP MM HYACINTH 1976-08-14 09:00:00 NR 22.0004 -138.664 spur-merge 1696 1665 __________P___ EP081976 TD -1 TC 22.0004 -138.664 1 30 12 346
1976220N12259 1976 88 EP MM HYACINTH 1976-08-14 12:00:00 NR 22.0000 -139.000 spur-merge 1665 __________O___ 22.0000 -139.000 1 30 6 270

About IBTrACS Database

This database is a web-friendly format of International Best Track Archive for Climate Stewardship (IBTrACS), a global best track data archive curated by NOAA dating back to 1842.

Updated: 2021-10-08